Time;durP1;ratioP1;P1;durP2;ratioP2;P2;SDS_P1;SDS_P2;PMS_P1;PMS_P2;Temp;Humidity;BMP_temperature;BMP_pressure;BME280_temperature;BME280_humidity;BME280_pressure;Samples;Min_cycle;Max_cycle;Signal;HPM_P1;HPM_P2
2021/12/24 15:59:31;;;;;;;5.18;3.03;;;;;;;9.19;84.12;98813.25;1090142;46;20099;-81
2021/12/24 16:00:37;;;;;;;5.80;3.70;;;;;;;9.20;83.82;98814.91;1088186;54;20034;-79
2021/12/24 16:01:39;;;;;;;5.35;3.00;;;;;;;9.14;84.31;98815.59;1087968;54;20038;-79
2021/12/24 16:02:43;;;;;;;6.35;3.92;;;;;;;9.14;84.72;98814.72;1087684;54;20066;-79
2021/12/24 16:03:47;;;;;;;7.82;4.13;;;;;;;9.13;84.99;98818.41;1087538;54;20050;-79
2021/12/24 16:04:49;;;;;;;6.25;3.80;;;;;;;9.13;85.05;98815.72;1087831;54;20038;-80
2021/12/24 16:05:54;;;;;;;5.53;3.67;;;;;;;9.27;84.55;98816.91;1087802;54;20042;-81
2021/12/24 16:07:01;;;;;;;5.75;3.47;;;;;;;9.34;84.72;98817.94;1087750;54;20034;-80
2021/12/24 16:08:06;;;;;;;5.32;3.22;;;;;;;9.30;84.68;98817.44;1090332;46;20038;-79
2021/12/24 16:09:09;;;;;;;5.80;3.40;;;;;;;9.38;84.76;98816.56;1087904;54;20023;-79
2021/12/24 16:10:14;;;;;;;6.00;3.35;;;;;;;9.43;84.46;98819.59;1088055;54;20026;-80
2021/12/24 16:11:19;;;;;;;5.97;3.28;;;;;;;9.48;84.35;98825.25;1088093;54;20030;-78
2021/12/24 16:12:23;;;;;;;5.68;3.47;;;;;;;9.49;84.03;98818.91;1088023;54;20053;-78
2021/12/24 16:13:36;;;;;;;4.78;3.08;;;;;;;9.50;84.31;98817.91;1088116;54;20078;-79
2021/12/24 16:14:41;;;;;;;5.97;3.05;;;;;;;9.56;84.22;98816.41;1087688;54;20041;-79
2021/12/24 16:15:50;;;;;;;5.43;3.38;;;;;;;9.57;83.79;98815.41;1087570;54;20042;-79
2021/12/24 16:16:53;;;;;;;6.43;3.30;;;;;;;9.50;84.16;98825.06;1087713;46;20030;-79
2021/12/24 16:17:58;;;;;;;5.80;3.53;;;;;;;9.48;84.33;98822.56;1087766;54;20026;-78
2021/12/24 16:18:59;;;;;;;5.63;3.35;;;;;;;9.52;84.30;98813.25;1087876;54;20030;-79
2021/12/24 16:20:04;;;;;;;5.70;3.15;;;;;;;9.58;84.23;98822.41;1088823;46;20042;-77
2021/12/24 16:21:09;;;;;;;5.47;3.25;;;;;;;9.60;84.38;98819.56;1088101;54;20038;-78
2021/12/24 16:22:18;;;;;;;6.05;3.38;;;;;;;9.62;84.24;98817.56;1088437;54;20039;-79
2021/12/24 16:23:22;;;;;;;5.53;3.10;;;;;;;9.63;83.99;98813.91;1088364;54;20061;-80
2021/12/24 16:24:26;;;;;;;5.85;3.50;;;;;;;9.64;84.16;98816.41;1088967;46;20034;-79
2021/12/24 16:25:31;;;;;;;5.95;3.60;;;;;;;9.64;84.08;98818.22;1106591;46;20034;-81
2021/12/24 16:28:29;;;;;;;6.88;3.72;;;;;;;9.59;84.03;98823.22;1088441;54;20026;-80
2021/12/24 16:29:58;;;;;;;6.45;3.85;;;;;;;9.58;84.53;98813.56;1088487;54;20018;-80
2021/12/24 16:31:00;;;;;;;5.47;3.45;;;;;;;9.60;84.33;98816.91;1092688;46;20018;-80
2021/12/24 16:32:04;;;;;;;4.85;2.97;;;;;;;9.61;84.24;98810.56;1088976;46;20173;-78
2021/12/24 16:33:09;;;;;;;5.40;3.60;;;;;;;9.61;84.34;98813.22;1087671;54;20034;-80
2021/12/24 16:34:11;;;;;;;5.95;3.17;;;;;;;9.65;84.14;98817.22;1087711;54;20063;-79
2021/12/24 16:35:18;;;;;;;6.68;3.75;;;;;;;9.63;84.18;98811.25;1087936;54;20049;-79
2021/12/24 16:36:21;;;;;;;6.55;3.45;;;;;;;9.65;84.37;98806.53;1087975;46;20062;-79
2021/12/24 16:37:29;;;;;;;6.60;3.38;;;;;;;9.67;84.25;98810.72;1088399;46;20055;-78
2021/12/24 16:38:33;;;;;;;6.05;3.28;;;;;;;9.70;84.28;98806.03;1087554;54;20059;-79
2021/12/24 16:39:35;;;;;;;5.00;2.85;;;;;;;9.71;84.37;98805.88;1089381;46;20026;-79
2021/12/24 16:40:39;;;;;;;5.70;3.03;;;;;;;9.71;83.95;98811.22;1086695;54;20053;-78
2021/12/24 16:41:46;;;;;;;5.18;3.03;;;;;;;9.70;84.30;98804.22;1086002;54;20466;-76
2021/12/24 16:42:53;;;;;;;5.95;3.75;;;;;;;9.64;84.37;98800.38;1085526;54;20071;-77
2021/12/24 16:43:54;;;;;;;5.72;3.97;;;;;;;9.63;84.11;98804.06;1085913;54;20042;-78
2021/12/24 16:45:01;;;;;;;5.72;3.10;;;;;;;9.58;84.46;98798.41;1086610;54;20110;-78
2021/12/24 16:46:03;;;;;;;7.03;4.30;;;;;;;9.60;84.72;98798.22;1086880;54;20049;-78
2021/12/24 16:47:09;;;;;;;5.85;3.85;;;;;;;9.61;84.66;98800.72;1086584;54;20045;-78
2021/12/24 16:48:17;;;;;;;5.00;3.35;;;;;;;9.60;84.47;98800.91;1086391;31;20604;-77
2021/12/24 16:49:18;;;;;;;6.03;3.63;;;;;;;9.61;84.76;98798.03;1085055;54;20058;-77
2021/12/24 16:50:23;;;;;;;5.30;3.60;;;;;;;9.59;84.34;98799.22;1084960;54;20042;-79
2021/12/24 16:51:25;;;;;;;6.85;4.35;;;;;;;9.60;84.63;98795.56;1084661;54;20084;-76
2021/12/24 16:52:29;;;;;;;6.38;3.78;;;;;;;9.58;84.59;98797.56;1084727;54;20166;-77
2021/12/24 16:53:31;;;;;;;6.43;4.43;;;;;;;9.49;84.70;98797.56;1085104;54;20046;-76
2021/12/24 16:54:35;;;;;;;6.80;4.18;;;;;;;9.46;84.99;98792.56;1084414;54;20039;-76
2021/12/24 16:55:37;;;;;;;5.10;3.85;;;;;;;9.49;85.10;98792.22;1085192;54;20049;-77
2021/12/24 16:56:41;;;;;;;6.50;3.65;;;;;;;9.51;84.81;98784.91;1085750;54;20647;-76
2021/12/24 16:57:45;;;;;;;6.10;4.18;;;;;;;9.47;84.97;98783.56;1085370;54;21111;-76
2021/12/24 16:58:50;;;;;;;5.85;4.07;;;;;;;9.44;84.92;98783.06;1086084;54;20034;-77
2021/12/24 16:59:51;;;;;;;6.28;4.20;;;;;;;9.42;85.18;98782.38;1086244;54;20054;-76
2021/12/24 17:00:59;;;;;;;6.00;4.10;;;;;;;9.44;85.47;98781.25;1086745;54;20034;-77
